KOUN

University of Oklahoma Westheimer Airport

Norman, Oklahoma, USA
METAR KOUN 131035Z AUTO 13004KT 10SM OVC110 12/11 A2964 RMK AO2 LTG DSNT SE AND S T01220112
Observed Flight Rules
Dec-13 @ 10:35 UTC (42 minutes ago) Visual Flight Rules
Wind Visibility Clouds
130° at 4 knots 10 miles
  • Overcast at 11,000' AGL
Temperatures Readings
Current 12°C / 54°F
Dewpoint 11°C / 52°F
Humidity 94%
Altimeter 29.64" Hg
Pressure 1004 hPa
Elevation 357
METAR KOUN 131035Z AUTO 13004KT 10SM OVC110 12/11 A2964 RMK AO2 LTG DSNT SE AND S T01220112
Observed Flight Rules
Dec-13 @ 10:35 UTC
(42 minutes ago)
VFR
Wind Visibility
130° at 4 knots 10 miles
Clouds
  • Overcast at 11,000' AGL
Temperature Dewpoint
12°C / 54°F 11°C / 52°F
Humidity Altimeter Pressure
94% 29.64" Hg 1004 hPa